sensor_id;sensor_type;location;lat;lon;timestamp;pressure;altitude;pressure_sealevel;temperature;humidity
55263;BME280;41125;48.752;9.168;2023-02-17T00:00:06;97705.81;;;8.04;58.31
55263;BME280;41125;48.752;9.168;2023-02-17T00:00:37;97702.28;;;8.03;58.03
55263;BME280;41125;48.752;9.168;2023-02-17T00:01:20;97704.47;;;8.06;57.99
55263;BME280;41125;48.752;9.168;2023-02-17T00:01:52;97698.34;;;8.16;57.79
55263;BME280;41125;48.752;9.168;2023-02-17T00:02:23;97696.22;;;8.18;57.65
55263;BME280;41125;48.752;9.168;2023-02-17T00:02:55;97706.22;;;8.18;57.69
55263;BME280;41125;48.752;9.168;2023-02-17T00:03:27;97705.91;;;8.14;57.65
55263;BME280;41125;48.752;9.168;2023-02-17T00:03:59;97704.28;;;8.13;57.60
55263;BME280;41125;48.752;9.168;2023-02-17T00:04:32;97705.59;;;8.11;57.71
55263;BME280;41125;48.752;9.168;2023-02-17T00:05:05;97705.34;;;8.12;57.52
55263;BME280;41125;48.752;9.168;2023-02-17T00:05:38;97701.31;;;8.15;57.86
55263;BME280;41125;48.752;9.168;2023-02-17T00:06:10;97697.84;;;8.19;57.39
55263;BME280;41125;48.752;9.168;2023-02-17T00:06:41;97698.16;;;8.23;57.22
55263;BME280;41125;48.752;9.168;2023-02-17T00:07:13;97695.44;;;8.23;57.23
55263;BME280;41125;48.752;9.168;2023-02-17T00:07:44;97698.97;;;8.23;57.25
55263;BME280;41125;48.752;9.168;2023-02-17T00:08:15;97693.25;;;8.20;57.45
55263;BME280;41125;48.752;9.168;2023-02-17T00:08:47;97695.41;;;8.18;57.32
55263;BME280;41125;48.752;9.168;2023-02-17T00:09:18;97705.66;;;8.16;57.76
55263;BME280;41125;48.752;9.168;2023-02-17T00:09:50;97694.28;;;8.14;57.83
55263;BME280;41125;48.752;9.168;2023-02-17T00:10:23;97699.13;;;8.12;57.94
55263;BME280;41125;48.752;9.168;2023-02-17T00:10:56;97707.19;;;8.06;57.99
55263;BME280;41125;48.752;9.168;2023-02-17T00:11:28;97708.75;;;8.02;58.10
55263;BME280;41125;48.752;9.168;2023-02-17T00:12:00;97697.94;;;8.02;58.12
55263;BME280;41125;48.752;9.168;2023-02-17T00:12:31;97703.91;;;8.04;58.10
55263;BME280;41125;48.752;9.168;2023-02-17T00:13:03;97699.59;;;8.03;57.98
55263;BME280;41125;48.752;9.168;2023-02-17T00:13:34;97708.25;;;8.05;58.22
55263;BME280;41125;48.752;9.168;2023-02-17T00:14:07;97710.69;;;8.07;58.25
55263;BME280;41125;48.752;9.168;2023-02-17T00:14:39;97707.19;;;8.06;58.11
55263;BME280;41125;48.752;9.168;2023-02-17T00:15:14;97704.19;;;8.03;58.33
55263;BME280;41125;48.752;9.168;2023-02-17T00:15:45;97709.28;;;7.99;58.27
55263;BME280;41125;48.752;9.168;2023-02-17T00:16:18;97710.88;;;7.95;58.30
55263;BME280;41125;48.752;9.168;2023-02-17T00:16:50;97710.31;;;7.93;58.40
55263;BME280;41125;48.752;9.168;2023-02-17T00:17:21;97701.41;;;7.93;58.84
55263;BME280;41125;48.752;9.168;2023-02-17T00:17:52;97707.37;;;7.95;58.57
55263;BME280;41125;48.752;9.168;2023-02-17T00:18:24;97700.06;;;7.95;58.55
55263;BME280;41125;48.752;9.168;2023-02-17T00:18:58;97704.41;;;7.96;58.56
55263;BME280;41125;48.752;9.168;2023-02-17T00:19:29;97704.94;;;7.98;58.42
55263;BME280;41125;48.752;9.168;2023-02-17T00:20:01;97702.22;;;7.98;58.48
55263;BME280;41125;48.752;9.168;2023-02-17T00:20:32;97696.84;;;7.98;58.61
55263;BME280;41125;48.752;9.168;2023-02-17T00:21:16;97707.13;;;8.01;58.22
55263;BME280;41125;48.752;9.168;2023-02-17T00:21:52;97709.28;;;7.99;58.32
55263;BME280;41125;48.752;9.168;2023-02-17T00:22:24;97700.34;;;7.99;58.61
55263;BME280;41125;48.752;9.168;2023-02-17T00:22:56;97699.59;;;8.03;58.60
55263;BME280;41125;48.752;9.168;2023-02-17T00:23:27;97699.06;;;8.06;58.19
55263;BME280;41125;48.752;9.168;2023-02-17T00:23:59;97698.81;;;8.08;58.39
55263;BME280;41125;48.752;9.168;2023-02-17T00:24:31;97695.81;;;8.04;58.55
55263;BME280;41125;48.752;9.168;2023-02-17T00:25:04;97696.31;;;8.01;58.49
55263;BME280;41125;48.752;9.168;2023-02-17T00:25:37;97694.41;;;7.97;58.46
55263;BME280;41125;48.752;9.168;2023-02-17T00:26:09;97699.03;;;8.01;58.39
55263;BME280;41125;48.752;9.168;2023-02-17T00:26:41;97697.94;;;8.02;58.59
55263;BME280;41125;48.752;9.168;2023-02-17T00:27:12;97684.69;;;8.01;58.78
55263;BME280;41125;48.752;9.168;2023-02-17T00:27:44;97693.66;;;8.06;58.39
55263;BME280;41125;48.752;9.168;2023-02-17T00:28:15;97698.25;;;8.06;58.33
55263;BME280;41125;48.752;9.168;2023-02-17T00:28:47;97692.53;;;8.02;58.39
55263;BME280;41125;48.752;9.168;2023-02-17T00:29:19;97690.41;;;8.04;58.72
55263;BME280;41125;48.752;9.168;2023-02-17T00:29:50;97694.47;;;8.07;58.69
55263;BME280;41125;48.752;9.168;2023-02-17T00:30:21;97693.94;;;8.05;58.66
55263;BME280;41125;48.752;9.168;2023-02-17T00:30:54;97694.69;;;8.00;58.69
55263;BME280;41125;48.752;9.168;2023-02-17T00:31:25;97688.78;;;8.03;58.70
55263;BME280;41125;48.752;9.168;2023-02-17T00:31:57;97695.25;;;8.02;58.68
55263;BME280;41125;48.752;9.168;2023-02-17T00:32:28;97695.19;;;7.97;59.20
55263;BME280;41125;48.752;9.168;2023-02-17T00:32:59;97700.84;;;7.91;59.07
55263;BME280;41125;48.752;9.168;2023-02-17T00:33:31;97694.63;;;7.90;59.42
55263;BME280;41125;48.752;9.168;2023-02-17T00:34:02;97702.16;;;7.88;59.43
55263;BME280;41125;48.752;9.168;2023-02-17T00:34:33;97692.94;;;7.84;59.70
55263;BME280;41125;48.752;9.168;2023-02-17T00:35:05;97694.50;;;7.80;59.77
55263;BME280;41125;48.752;9.168;2023-02-17T00:35:39;97690.19;;;7.79;59.33
55263;BME280;41125;48.752;9.168;2023-02-17T00:36:14;97700.97;;;7.79;60.05
55263;BME280;41125;48.752;9.168;2023-02-17T00:36:50;97691.31;;;7.83;59.86
55263;BME280;41125;48.752;9.168;2023-02-17T00:37:21;97697.28;;;7.85;59.70
55263;BME280;41125;48.752;9.168;2023-02-17T00:37:52;97691.87;;;7.85;59.43
55263;BME280;41125;48.752;9.168;2023-02-17T00:38:23;97701.03;;;7.84;59.51
55263;BME280;41125;48.752;9.168;2023-02-17T00:38:55;97689.09;;;7.80;59.84
55263;BME280;41125;48.752;9.168;2023-02-17T00:39:28;97702.16;;;7.88;59.80
55263;BME280;41125;48.752;9.168;2023-02-17T00:39:59;97695.69;;;7.89;59.77
55263;BME280;41125;48.752;9.168;2023-02-17T00:40:30;97702.41;;;7.87;59.62
55263;BME280;41125;48.752;9.168;2023-02-17T00:41:01;97692.94;;;7.84;59.67
55263;BME280;41125;48.752;9.168;2023-02-17T00:41:33;97698.84;;;7.81;59.94
55263;BME280;41125;48.752;9.168;2023-02-17T00:42:05;97699.09;;;7.80;60.09
55263;BME280;41125;48.752;9.168;2023-02-17T00:42:39;97696.44;;;7.85;59.83
55263;BME280;41125;48.752;9.168;2023-02-17T00:43:10;97702.66;;;7.85;59.90
55263;BME280;41125;48.752;9.168;2023-02-17T00:43:44;97701.66;;;7.91;60.22
55263;BME280;41125;48.752;9.168;2023-02-17T00:44:21;97695.44;;;7.91;59.55
55263;BME280;41125;48.752;9.168;2023-02-17T00:44:52;97697.13;;;7.97;59.51
55263;BME280;41125;48.752;9.168;2023-02-17T00:45:23;97697.38;;;7.95;59.32
55263;BME280;41125;48.752;9.168;2023-02-17T00:45:55;97692.47;;;7.92;59.81
55263;BME280;41125;48.752;9.168;2023-02-17T00:46:27;97696.25;;;7.91;59.94
55263;BME280;41125;48.752;9.168;2023-02-17T00:46:58;97701.09;;;7.89;59.98
55263;BME280;41125;48.752;9.168;2023-02-17T00:47:29;97693.25;;;7.88;60.14
55263;BME280;41125;48.752;9.168;2023-02-17T00:48:00;97696.75;;;7.88;59.86
55263;BME280;41125;48.752;9.168;2023-02-17T00:48:32;97691.34;;;7.88;59.82
55263;BME280;41125;48.752;9.168;2023-02-17T00:49:03;97697.81;;;7.87;60.09
55263;BME280;41125;48.752;9.168;2023-02-17T00:49:35;97696.19;;;7.86;60.12
55263;BME280;41125;48.752;9.168;2023-02-17T00:50:08;97702.66;;;7.85;60.18
55263;BME280;41125;48.752;9.168;2023-02-17T00:50:40;97697.81;;;7.87;60.33
55263;BME280;41125;48.752;9.168;2023-02-17T00:51:11;97694.09;;;7.93;60.17
55263;BME280;41125;48.752;9.168;2023-02-17T00:51:45;97696.25;;;7.91;60.14
55263;BME280;41125;48.752;9.168;2023-02-17T00:52:16;97699.22;;;7.90;60.09
55263;BME280;41125;48.752;9.168;2023-02-17T00:52:48;97699.22;;;7.90;60.25
55263;BME280;41125;48.752;9.168;2023-02-17T00:53:19;97699.22;;;7.90;60.33
55263;BME280;41125;48.752;9.168;2023-02-17T00:53:50;97698.41;;;7.89;60.23
55263;BME280;41125;48.752;9.168;2023-02-17T00:54:21;97696.75;;;7.88;60.14
55263;BME280;41125;48.752;9.168;2023-02-17T00:54:52;97697.28;;;7.85;60.16
55263;BME280;41125;48.752;9.168;2023-02-17T00:55:24;97696.16;;;7.81;60.33
55263;BME280;41125;48.752;9.168;2023-02-17T00:55:56;97698.03;;;7.81;60.66
55263;BME280;41125;48.752;9.168;2023-02-17T00:56:27;97692.63;;;7.81;60.72
55263;BME280;41125;48.752;9.168;2023-02-17T00:56:58;97694.50;;;7.80;60.50
55263;BME280;41125;48.752;9.168;2023-02-17T00:57:30;97703.19;;;7.82;60.75
55263;BME280;41125;48.752;9.168;2023-02-17T00:58:02;97700.47;;;7.82;60.73
55263;BME280;41125;48.752;9.168;2023-02-17T00:58:34;97701.84;;;7.85;60.80
55263;BME280;41125;48.752;9.168;2023-02-17T00:59:06;97696.00;;;7.93;60.53
55263;BME280;41125;48.752;9.168;2023-02-17T00:59:38;97702.78;;;7.95;60.25
55263;BME280;41125;48.752;9.168;2023-02-17T01:00:10;97695.75;;;7.94;60.47
55263;BME280;41125;48.752;9.168;2023-02-17T01:00:41;97700.31;;;7.94;60.53
55263;BME280;41125;48.752;9.168;2023-02-17T01:01:13;97699.50;;;7.93;60.26
55263;BME280;41125;48.752;9.168;2023-02-17T01:01:44;97696.00;;;7.93;60.57
55263;BME280;41125;48.752;9.168;2023-02-17T01:02:16;97696.81;;;7.93;60.47
55263;BME280;41125;48.752;9.168;2023-02-17T01:02:47;97692.47;;;7.92;60.61
55263;BME280;41125;48.752;9.168;2023-02-17T01:03:18;97694.94;;;7.94;60.62
55263;BME280;41125;48.752;9.168;2023-02-17T01:03:52;97696.75;;;7.88;60.98
55263;BME280;41125;48.752;9.168;2023-02-17T01:04:24;97698.09;;;7.86;60.54
55263;BME280;41125;48.752;9.168;2023-02-17T01:04:55;97702.09;;;7.83;60.85
55263;BME280;41125;48.752;9.168;2023-02-17T01:05:26;97700.97;;;7.79;60.96
55263;BME280;41125;48.752;9.168;2023-02-17T01:05:58;97695.59;;;7.79;60.83
55263;BME280;41125;48.752;9.168;2023-02-17T01:06:35;97699.09;;;7.80;61.16
55263;BME280;41125;48.752;9.168;2023-02-17T01:07:07;97699.34;;;7.78;61.12
55263;BME280;41125;48.752;9.168;2023-02-17T01:07:38;97705.88;;;7.82;61.13
55263;BME280;41125;48.752;9.168;2023-02-17T01:08:10;97707.75;;;7.82;61.14
55263;BME280;41125;48.752;9.168;2023-02-17T01:08:41;97698.28;;;7.79;60.81
55263;BME280;41125;48.752;9.168;2023-02-17T01:09:13;97696.66;;;7.78;61.29
55263;BME280;41125;48.752;9.168;2023-02-17T01:09:45;97702.06;;;7.78;60.83
55263;BME280;41125;48.752;9.168;2023-02-17T01:10:16;97701.25;;;7.78;61.10
55263;BME280;41125;48.752;9.168;2023-02-17T01:10:48;97700.94;;;7.74;61.12
55263;BME280;41125;48.752;9.168;2023-02-17T01:11:25;97697.16;;;7.75;61.10
55263;BME280;41125;48.752;9.168;2023-02-17T01:11:58;97698.78;;;7.76;61.42
55263;BME280;41125;48.752;9.168;2023-02-17T01:12:29;97709.59;;;7.76;61.26
55263;BME280;41125;48.752;9.168;2023-02-17T01:13:00;97703.12;;;7.77;61.62
55263;BME280;41125;48.752;9.168;2023-02-17T01:13:32;97701.53;;;7.81;61.28
55263;BME280;41125;48.752;9.168;2023-02-17T01:14:04;97702.06;;;7.78;61.34
55263;BME280;41125;48.752;9.168;2023-02-17T01:14:38;97693.91;;;7.73;61.68
55263;BME280;41125;48.752;9.168;2023-02-17T01:15:09;97691.75;;;7.75;61.21
55263;BME280;41125;48.752;9.168;2023-02-17T01:15:43;97695.03;;;7.77;61.52
55263;BME280;41125;48.752;9.168;2023-02-17T01:16:21;97692.56;;;7.76;61.42
55263;BME280;41125;48.752;9.168;2023-02-17T01:16:53;97695.84;;;7.78;61.56
55263;BME280;41125;48.752;9.168;2023-02-17T01:17:24;97695.53;;;7.74;61.87
55263;BME280;41125;48.752;9.168;2023-02-17T01:17:55;97689.56;;;7.72;61.56
55263;BME280;41125;48.752;9.168;2023-02-17T01:18:27;97685.72;;;7.68;61.63
55263;BME280;41125;48.752;9.168;2023-02-17T01:18:58;97693.28;;;7.66;61.90
55263;BME280;41125;48.752;9.168;2023-02-17T01:19:31;97690.00;;;7.64;61.87
55263;BME280;41125;48.752;9.168;2023-02-17T01:20:03;97686.84;;;7.72;61.78
55263;BME280;41125;48.752;9.168;2023-02-17T01:20:35;97684.97;;;7.72;61.76
55263;BME280;41125;48.752;9.168;2023-02-17T01:21:18;97684.16;;;7.72;61.77
55263;BME280;41125;48.752;9.168;2023-02-17T01:21:50;97691.19;;;7.73;61.57
55263;BME280;41125;48.752;9.168;2023-02-17T01:22:21;97686.84;;;7.72;61.73
55263;BME280;41125;48.752;9.168;2023-02-17T01:22:52;97683.09;;;7.73;61.78
55263;BME280;41125;48.752;9.168;2023-02-17T01:23:23;97683.09;;;7.73;61.79
55263;BME280;41125;48.752;9.168;2023-02-17T01:23:57;97688.75;;;7.71;61.95
55263;BME280;41125;48.752;9.168;2023-02-17T01:24:29;97681.25;;;7.79;61.57
55263;BME280;41125;48.752;9.168;2023-02-17T01:25:00;97685.03;;;7.78;61.33
55263;BME280;41125;48.752;9.168;2023-02-17T01:25:35;97684.22;;;7.77;61.61
55263;BME280;41125;48.752;9.168;2023-02-17T01:26:12;97682.59;;;7.76;61.55
55263;BME280;41125;48.752;9.168;2023-02-17T01:26:44;97686.84;;;7.72;61.68
55263;BME280;41125;48.752;9.168;2023-02-17T01:27:15;97684.47;;;7.76;61.53
55263;BME280;41125;48.752;9.168;2023-02-17T01:27:46;97682.03;;;7.74;61.80
55263;BME280;41125;48.752;9.168;2023-02-17T01:28:19;97679.31;;;7.74;61.93
55263;BME280;41125;48.752;9.168;2023-02-17T01:28:51;97681.47;;;7.72;61.58
55263;BME280;41125;48.752;9.168;2023-02-17T01:29:23;97687.38;;;7.69;61.99
55263;BME280;41125;48.752;9.168;2023-02-17T01:29:55;97687.88;;;7.66;61.81
55263;BME280;41125;48.752;9.168;2023-02-17T01:30:26;97686.25;;;7.65;61.76
55263;BME280;41125;48.752;9.168;2023-02-17T01:30:58;97679.22;;;7.64;62.23
55263;BME280;41125;48.752;9.168;2023-02-17T01:31:34;97684.59;;;7.64;62.11
55263;BME280;41125;48.752;9.168;2023-02-17T01:32:06;97687.31;;;7.64;62.34
55263;BME280;41125;48.752;9.168;2023-02-17T01:32:37;97681.09;;;7.63;62.39
55263;BME280;41125;48.752;9.168;2023-02-17T01:33:09;97681.91;;;7.64;62.52
55263;BME280;41125;48.752;9.168;2023-02-17T01:33:41;97684.59;;;7.64;62.25
55263;BME280;41125;48.752;9.168;2023-02-17T01:34:12;97682.16;;;7.62;62.39
55263;BME280;41125;48.752;9.168;2023-02-17T01:34:43;97674.34;;;7.61;62.55
55263;BME280;41125;48.752;9.168;2023-02-17T01:35:14;97683.50;;;7.60;62.25
55263;BME280;41125;48.752;9.168;2023-02-17T01:35:46;97681.63;;;7.60;62.51
55263;BME280;41125;48.752;9.168;2023-02-17T01:36:18;97678.13;;;7.60;62.44
55263;BME280;41125;48.752;9.168;2023-02-17T01:36:49;97675.97;;;7.62;62.45
55263;BME280;41125;48.752;9.168;2023-02-17T01:37:27;97675.97;;;7.62;62.35
55263;BME280;41125;48.752;9.168;2023-02-17T01:37:59;97682.97;;;7.63;62.62
55263;BME280;41125;48.752;9.168;2023-02-17T01:38:30;97676.25;;;7.65;62.30
55263;BME280;41125;48.752;9.168;2023-02-17T01:39:05;97670.84;;;7.65;62.17
55263;BME280;41125;48.752;9.168;2023-02-17T01:39:37;97671.66;;;7.66;62.46
55263;BME280;41125;48.752;9.168;2023-02-17T01:40:12;97672.72;;;7.65;62.46
55263;BME280;41125;48.752;9.168;2023-02-17T01:40:47;97671.47;;;7.72;62.63
55263;BME280;41125;48.752;9.168;2023-02-17T01:41:20;97672.78;;;7.70;62.60
55263;BME280;41125;48.752;9.168;2023-02-17T01:41:52;97676.56;;;7.69;62.25
55263;BME280;41125;48.752;9.168;2023-02-17T01:42:24;97673.31;;;7.67;62.47
55263;BME280;41125;48.752;9.168;2023-02-17T01:42:56;97667.91;;;7.67;62.80
55263;BME280;41125;48.752;9.168;2023-02-17T01:43:27;97669.53;;;7.68;62.34
55263;BME280;41125;48.752;9.168;2023-02-17T01:44:20;97669.78;;;7.66;62.53
55263;BME280;41125;48.752;9.168;2023-02-17T01:46:09;97663.56;;;7.66;62.38
55263;BME280;41125;48.752;9.168;2023-02-17T01:46:42;97668.41;;;7.64;62.58
55263;BME280;41125;48.752;9.168;2023-02-17T01:47:14;97664.34;;;7.61;62.86
55263;BME280;41125;48.752;9.168;2023-02-17T01:48:00;97663.53;;;7.61;62.86
55263;BME280;41125;48.752;9.168;2023-02-17T01:48:42;97665.16;;;7.62;62.73
55263;BME280;41125;48.752;9.168;2023-02-17T01:49:30;97663.00;;;7.64;62.56
55263;BME280;41125;48.752;9.168;2023-02-17T01:50:04;97666.78;;;7.63;62.65
55263;BME280;41125;48.752;9.168;2023-02-17T01:51:04;97660.56;;;7.62;62.49
55263;BME280;41125;48.752;9.168;2023-02-17T01:51:37;97667.31;;;7.60;62.60
55263;BME280;41125;48.752;9.168;2023-02-17T01:52:18;97660.78;;;7.56;63.11
55263;BME280;41125;48.752;9.168;2023-02-17T01:52:50;97662.91;;;7.54;62.95
55263;BME280;41125;48.752;9.168;2023-02-17T01:54:25;97661.37;;;7.63;62.62
55263;BME280;41125;48.752;9.168;2023-02-17T01:55:01;97658.66;;;7.63;62.48
55263;BME280;41125;48.752;9.168;2023-02-17T01:55:35;97663.53;;;7.61;62.60
55263;BME280;41125;48.752;9.168;2023-02-17T01:56:08;97667.31;;;7.60;62.68
55263;BME280;41125;48.752;9.168;2023-02-17T01:56:42;97665.69;;;7.59;62.71
55263;BME280;41125;48.752;9.168;2023-02-17T01:57:18;97653.75;;;7.55;62.66
55263;BME280;41125;48.752;9.168;2023-02-17T01:57:52;97658.34;;;7.54;62.85
55263;BME280;41125;48.752;9.168;2023-02-17T01:58:27;97660.22;;;7.54;62.77
55263;BME280;41125;48.752;9.168;2023-02-17T01:59:03;97655.88;;;7.53;63.12
55263;BME280;41125;48.752;9.168;2023-02-17T01:59:36;97657.53;;;7.54;63.07
55263;BME280;41125;48.752;9.168;2023-02-17T02:00:09;97661.28;;;7.53;63.04
55263;BME280;41125;48.752;9.168;2023-02-17T02:00:45;97659.66;;;7.52;63.08
55263;BME280;41125;48.752;9.168;2023-02-17T02:01:18;97668.25;;;7.49;63.25
55263;BME280;41125;48.752;9.168;2023-02-17T02:01:51;97658.03;;;7.51;63.13
55263;BME280;41125;48.752;9.168;2023-02-17T02:02:24;97659.91;;;7.50;63.10
55263;BME280;41125;48.752;9.168;2023-02-17T02:02:59;97659.66;;;7.52;63.18
55263;BME280;41125;48.752;9.168;2023-02-17T02:03:33;97655.88;;;7.53;63.12
55263;BME280;41125;48.752;9.168;2023-02-17T02:04:07;97659.66;;;7.52;63.26
55263;BME280;41125;48.752;9.168;2023-02-17T02:04:41;97661.78;;;7.50;63.26
55263;BME280;41125;48.752;9.168;2023-02-17T02:05:14;97660.16;;;7.49;63.06
55263;BME280;41125;48.752;9.168;2023-02-17T02:05:46;97660.97;;;7.49;63.02
55263;BME280;41125;48.752;9.168;2023-02-17T02:06:20;97666.13;;;7.51;63.04
55263;BME280;41125;48.752;9.168;2023-02-17T02:06:53;97665.06;;;7.52;63.13
55263;BME280;41125;48.752;9.168;2023-02-17T02:07:31;97661.78;;;7.50;62.89
55263;BME280;41125;48.752;9.168;2023-02-17T02:08:03;97657.22;;;7.50;63.06
55263;BME280;41125;48.752;9.168;2023-02-17T02:08:46;97660.16;;;7.49;63.47
55263;BME280;41125;48.752;9.168;2023-02-17T02:10:17;97654.75;;;7.49;63.21
55263;BME280;41125;48.752;9.168;2023-02-17T02:10:48;97657.47;;;7.49;63.24
55263;BME280;41125;48.752;9.168;2023-02-17T02:11:21;97654.75;;;7.49;63.21
55263;BME280;41125;48.752;9.168;2023-02-17T02:11:52;97656.41;;;7.50;63.02
55263;BME280;41125;48.752;9.168;2023-02-17T02:12:29;97655.56;;;7.49;63.09
55263;BME280;41125;48.752;9.168;2023-02-17T02:13:01;97652.87;;;7.49;63.40
55263;BME280;41125;48.752;9.168;2023-02-17T02:13:33;97651.00;;;7.50;63.33
55263;BME280;41125;48.752;9.168;2023-02-17T02:14:06;97655.84;;;7.48;63.46
55263;BME280;41125;48.752;9.168;2023-02-17T02:14:38;97658.28;;;7.49;63.50
55263;BME280;41125;48.752;9.168;2023-02-17T02:15:21;97652.06;;;7.49;63.76
55263;BME280;41125;48.752;9.168;2023-02-17T02:16:06;97655.28;;;7.46;63.81
55263;BME280;41125;48.752;9.168;2023-02-17T02:17:05;97652.00;;;7.44;63.61
55263;BME280;41125;48.752;9.168;2023-02-17T02:18:10;97648.22;;;7.45;63.53
55263;BME280;41125;48.752;9.168;2023-02-17T02:25:44;97646.25;;;7.62;62.82
55263;BME280;41125;48.752;9.168;2023-02-17T02:29:27;97656.41;;;7.50;63.00
55263;BME280;41125;48.752;9.168;2023-02-17T02:32:46;97646.66;;;7.49;62.98
55263;BME280;41125;48.752;9.168;2023-02-17T02:35:05;97648.22;;;7.45;62.93
55263;BME280;41125;48.752;9.168;2023-02-17T02:36:15;97639.63;;;7.48;63.21
55263;BME280;41125;48.752;9.168;2023-02-17T02:36:56;97643.16;;;7.48;62.96
55263;BME280;41125;48.752;9.168;2023-02-17T02:37:35;97650.44;;;7.48;62.69
55263;BME280;41125;48.752;9.168;2023-02-17T02:38:31;97646.66;;;7.49;62.88
55263;BME280;41125;48.752;9.168;2023-02-17T02:39:15;97637.25;;;7.51;62.96
55263;BME280;41125;48.752;9.168;2023-02-17T02:39:49;97638.06;;;7.52;62.51
55263;BME280;41125;48.752;9.168;2023-02-17T02:40:28;97636.41;;;7.51;62.71
55263;BME280;41125;48.752;9.168;2023-02-17T02:41:10;97640.19;;;7.50;62.48
55263;BME280;41125;48.752;9.168;2023-02-17T02:41:46;97634.78;;;7.50;63.02
55263;BME280;41125;48.752;9.168;2023-02-17T02:42:22;97637.75;;;7.48;62.78
55263;BME280;41125;48.752;9.168;2023-02-17T02:42:55;97636.13;;;7.47;62.60
55263;BME280;41125;48.752;9.168;2023-02-17T02:43:29;97635.28;;;7.47;62.63
55263;BME280;41125;48.752;9.168;2023-02-17T02:44:03;97628.25;;;7.46;62.97
55263;BME280;41125;48.752;9.168;2023-02-17T02:44:36;97636.38;;;7.46;63.05
55263;BME280;41125;48.752;9.168;2023-02-17T02:45:09;97637.44;;;7.45;62.72
55263;BME280;41125;48.752;9.168;2023-02-17T02:45:41;97637.25;;;7.51;62.91
55263;BME280;41125;48.752;9.168;2023-02-17T02:46:13;97622.66;;;7.52;62.54
55263;BME280;41125;48.752;9.168;2023-02-17T02:46:44;97635.09;;;7.53;62.51
55263;BME280;41125;48.752;9.168;2023-02-17T02:47:52;97634.28;;;7.53;62.68
55263;BME280;41125;48.752;9.168;2023-02-17T02:48:25;97634.59;;;7.56;62.70
55263;BME280;41125;48.752;9.168;2023-02-17T02:48:56;97632.72;;;7.57;62.33
55263;BME280;41125;48.752;9.168;2023-02-17T02:49:29;97627.88;;;7.59;62.56
55263;BME280;41125;48.752;9.168;2023-02-17T02:50:02;97624.59;;;7.57;62.64
55263;BME280;41125;48.752;9.168;2023-02-17T02:52:11;97629.78;;;7.63;62.35
55263;BME280;41125;48.752;9.168;2023-02-17T02:53:02;97623.06;;;7.66;62.18
55263;BME280;41125;48.752;9.168;2023-02-17T02:55:18;97632.22;;;7.65;61.95
55263;BME280;41125;48.752;9.168;2023-02-17T02:56:10;97628.97;;;7.63;62.35
55263;BME280;41125;48.752;9.168;2023-02-17T02:59:19;97626.31;;;7.68;61.91
55263;BME280;41125;48.752;9.168;2023-02-17T03:00:19;97614.69;;;7.67;61.93
55263;BME280;41125;48.752;9.168;2023-02-17T03:01:11;97621.41;;;7.65;61.99
55263;BME280;41125;48.752;9.168;2023-02-17T03:03:26;97621.97;;;7.62;62.51
55263;BME280;41125;48.752;9.168;2023-02-17T03:04:15;97616.00;;;7.60;62.12
55263;BME280;41125;48.752;9.168;2023-02-17T03:05:12;97614.69;;;7.67;62.14
55263;BME280;41125;48.752;9.168;2023-02-17T03:06:02;97607.97;;;7.70;62.01
55263;BME280;41125;48.752;9.168;2023-02-17T03:06:44;97610.09;;;7.68;62.23
55263;BME280;41125;48.752;9.168;2023-02-17T03:07:27;97606.28;;;7.64;61.95
55263;BME280;41125;48.752;9.168;2023-02-17T03:08:22;97603.59;;;7.64;62.06
55263;BME280;41125;48.752;9.168;2023-02-17T03:09:02;97611.16;;;7.62;62.24
55263;BME280;41125;48.752;9.168;2023-02-17T03:09:35;97607.91;;;7.65;62.29
55263;BME280;41125;48.752;9.168;2023-02-17T03:10:08;97614.69;;;7.67;62.38
55263;BME280;41125;48.752;9.168;2023-02-17T03:10:46;97616.00;;;7.65;62.31
55263;BME280;41125;48.752;9.168;2023-02-17T03:11:24;97601.44;;;7.66;62.02
55263;BME280;41125;48.752;9.168;2023-02-17T03:12:02;97602.56;;;7.70;61.85
55263;BME280;41125;48.752;9.168;2023-02-17T03:12:36;97605.25;;;7.70;61.89
55263;BME280;41125;48.752;9.168;2023-02-17T03:13:08;97612.03;;;7.72;62.11
55263;BME280;41125;48.752;9.168;2023-02-17T03:13:40;97610.16;;;7.73;61.94
55263;BME280;41125;48.752;9.168;2023-02-17T03:14:15;97602.06;;;7.73;61.67
55263;BME280;41125;48.752;9.168;2023-02-17T03:14:49;97605.31;;;7.75;61.85
55263;BME280;41125;48.752;9.168;2023-02-17T03:15:30;97596.66;;;7.73;61.61
55263;BME280;41125;48.752;9.168;2023-02-17T03:16:04;97597.72;;;7.72;62.02
55263;BME280;41125;48.752;9.168;2023-02-17T03:16:37;97604.19;;;7.71;62.25
55263;BME280;41125;48.752;9.168;2023-02-17T03:17:10;97599.31;;;7.68;62.23
55263;BME280;41125;48.752;9.168;2023-02-17T03:17:43;97597.09;;;7.65;62.11
55263;BME280;41125;48.752;9.168;2023-02-17T03:18:14;97596.03;;;7.66;62.35
55263;BME280;41125;48.752;9.168;2023-02-17T03:18:46;97592.53;;;7.65;62.01
55263;BME280;41125;48.752;9.168;2023-02-17T03:19:19;97599.25;;;7.63;62.48
55263;BME280;41125;48.752;9.168;2023-02-17T03:19:53;97596.56;;;7.63;62.12
55263;BME280;41125;48.752;9.168;2023-02-17T03:20:26;97596.56;;;7.63;62.34
55263;BME280;41125;48.752;9.168;2023-02-17T03:21:04;97598.19;;;7.64;62.18
55263;BME280;41125;48.752;9.168;2023-02-17T03:22:35;97595.47;;;7.59;62.61
55263;BME280;41125;48.752;9.168;2023-02-17T03:23:10;97594.66;;;7.58;62.49
55263;BME280;41125;48.752;9.168;2023-02-17T03:23:42;97596.28;;;7.59;62.38
55263;BME280;41125;48.752;9.168;2023-02-17T03:24:13;97592.25;;;7.62;62.77
55263;BME280;41125;48.752;9.168;2023-02-17T03:24:45;97594.13;;;7.61;62.60
55263;BME280;41125;48.752;9.168;2023-02-17T03:25:16;97592.75;;;7.59;62.74
55263;BME280;41125;48.752;9.168;2023-02-17T03:25:48;97586.78;;;7.57;62.68
55263;BME280;41125;48.752;9.168;2023-02-17T03:26:19;97592.44;;;7.55;62.74
55263;BME280;41125;48.752;9.168;2023-02-17T03:26:54;97602.50;;;7.60;62.38
55263;BME280;41125;48.752;9.168;2023-02-17T03:27:25;97600.03;;;7.58;62.64
55263;BME280;41125;48.752;9.168;2023-02-17T03:27:56;97587.63;;;7.57;62.46
55263;BME280;41125;48.752;9.168;2023-02-17T03:28:28;97588.94;;;7.55;62.61
55263;BME280;41125;48.752;9.168;2023-02-17T03:28:59;97590.56;;;7.56;62.50
55263;BME280;41125;48.752;9.168;2023-02-17T03:29:30;97590.56;;;7.56;62.77
55263;BME280;41125;48.752;9.168;2023-02-17T03:30:02;97597.03;;;7.55;62.59